Observation data for Reese Center on 12/09/2018      Previous  Date       Current Mesonet Observations  Soil Data  Daily Summary Page  Observations in Plain Language
KREE 090600Z 33003KT M10/M10 A303 RMK A01 T10961102  RH  097%=      5-min Rain = 0
KREE 090605Z 32002KT M10/M10 A303 RMK A01 T10971104  RH  096%=      5-min Rain = 0
KREE 090610Z 31003KT M10/M11 A303 RMK A01 T10991106  RH  096%=      5-min Rain = 0
KREE 090615Z 32003KT M10/M11 A303 RMK A01 T10991106  RH  096%=      5-min Rain = 0
KREE 090620Z 32003KT M10/M11 A303 RMK A01 T11001107  RH  096%=      5-min Rain = 0
KREE 090625Z 32003KT M10/M11 A3029 RMK A01 T11001106  RH  096%=      5-min Rain = 0
KREE 090630Z 32004KT M10/M11 A3029 RMK A01 T11001106  RH  096%=      5-min Rain = 0
KREE 090635Z 30004KT M10/M11 A303 RMK A01 T11001107  RH  096%=      5-min Rain = 0
KREE 090640Z 29004KT M10/M11 A303 RMK A01 T11001107  RH  096%=      5-min Rain = 0
KREE 090645Z 29004KT M10/M11 A303 RMK A01 T11011108  RH  096%=      5-min Rain = 0
KREE 090650Z 29005KT M10/M11 A303 RMK A01 T11011108  RH  096%=      5-min Rain = 0
KREE 090655Z 30005KT M10/M11 A3029 RMK A01 T11021109  RH  096%=      5-min Rain = 0
KREE 090700Z 30005KT M10/M11 A3029 RMK A01 T11021108  RH  096%=      5-min Rain = 0
KREE 090705Z 31005KT M10/M11 A3029 RMK A01 T11021108  RH  096%=      5-min Rain = 0
KREE 090710Z 32004KT M10/M11 A3029 RMK A01 T11001107  RH  096%=      5-min Rain = 0
KREE 090715Z 33004KT M10/M10 A3029 RMK A01 T10981104  RH  097%=      5-min Rain = 0
KREE 090720Z 33004KT M10/M10 A3029 RMK A01 T10971104  RH  096%=      5-min Rain = 0
KREE 090725Z 33003KT M10/M10 A3029 RMK A01 T10981104  RH  096%=      5-min Rain = 0
KREE 090730Z 31003KT M10/M11 A3029 RMK A01 T10991106  RH  096%=      5-min Rain = 0
KREE 090735Z 33003KT M10/M11 A3029 RMK A01 T11001108  RH  096%=      5-min Rain = 0
KREE 090740Z 33003KT M10/M11 A3029 RMK A01 T11021109  RH  096%=      5-min Rain = 0
KREE 090745Z 34003KT M10/M11 A3029 RMK A01 T11031110  RH  095%=      5-min Rain = 0
KREE 090750Z 34004KT M10/M11 A3029 RMK A01 T11031110  RH  096%=      5-min Rain = 0
KREE 090755Z 34004KT M10/M11 A3028 RMK A01 T11011108  RH  096%=      5-min Rain = 0
KREE 090800Z 34004KT M10/M11 A3028 RMK A01 T11011108  RH  096%=      5-min Rain = 0
KREE 090805Z 33003KT M10/M11 A3029 RMK A01 T11021109  RH  096%=      5-min Rain = 0
KREE 090810Z 34003KT M10/M11 A3029 RMK A01 T11021110  RH  096%=      5-min Rain = 0
KREE 090815Z 33002KT M10/M11 A3029 RMK A01 T11031110  RH  096%=      5-min Rain = 0
KREE 090820Z 33003KT M10/M11 A3028 RMK A01 T11021109  RH  096%=      5-min Rain = 0
KREE 090825Z 34002KT M10/M11 A3029 RMK A01 T11031110  RH  095%=      5-min Rain = 0
KREE 090830Z 35003KT M10/M11 A3029 RMK A01 T11031111  RH  095%=      5-min Rain = 0
KREE 090835Z 35002KT M10/M11 A3029 RMK A01 T11031110  RH  096%=      5-min Rain = 0
KREE 090840Z 36002KT M10/M11 A3028 RMK A01 T11031111  RH  095%=      5-min Rain = 0
KREE 090845Z 33002KT M10/M11 A3029 RMK A01 T11031110  RH  096%=      5-min Rain = 0
KREE 090850Z 34003KT M10/M11 A3029 RMK A01 T11021109  RH  096%=      5-min Rain = 0
KREE 090855Z 35004KT M10/M11 A3028 RMK A01 T11011108  RH  096%=      5-min Rain = 0
KREE 090900Z 00004KT M10/M11 A3028 RMK A01 T10991106  RH  096%=      5-min Rain = 0
KREE 090905Z 36004KT M10/M11 A3028 RMK A01 T10991106  RH  096%=      5-min Rain = 0
KREE 090910Z 35004KT M10/M11 A3028 RMK A01 T11011109  RH  095%=      5-min Rain = 0
KREE 090915Z 31003KT M10/M11 A3028 RMK A01 T11021110  RH  095%=      5-min Rain = 0
KREE 090920Z 31003KT M10/M11 A3029 RMK A01 T11031111  RH  095%=      5-min Rain = 0
KREE 090925Z 30004KT M11/M11 A3029 RMK A01 T11051113  RH  095%=      5-min Rain = 0
KREE 090930Z 30004KT M11/M12 A3029 RMK A01 T11071115  RH  095%=      5-min Rain = 0
KREE 090935Z 30004KT M11/M12 A3029 RMK A01 T11071115  RH  095%=      5-min Rain = 0
KREE 090940Z 30004KT M11/M12 A3029 RMK A01 T11071115  RH  095%=      5-min Rain = 0
KREE 090945Z 31004KT M11/M11 A3029 RMK A01 T11061114  RH  095%=      5-min Rain = 0
KREE 090950Z 32004KT M11/M11 A3029 RMK A01 T11061113  RH  095%=      5-min Rain = 0
KREE 090955Z 31003KT M11/M11 A3029 RMK A01 T11051112  RH  096%=      5-min Rain = 0
KREE 091000Z 31003KT M10/M11 A3029 RMK A01 T11041112  RH  095%=      5-min Rain = 0
KREE 091005Z 32003KT M10/M11 A3028 RMK A01 T11031111  RH  096%=      5-min Rain = 0
KREE 091010Z 33003KT M10/M11 A3029 RMK A01 T11031110  RH  096%=      5-min Rain = 0
KREE 091015Z 33003KT M10/M11 A3029 RMK A01 T11031111  RH  095%=      5-min Rain = 0
KREE 091020Z 33003KT M10/M11 A3029 RMK A01 T11041113  RH  095%=      5-min Rain = 0
KREE 091025Z 33004KT M11/M11 A3028 RMK A01 T11051113  RH  095%=      5-min Rain = 0
KREE 091030Z 33004KT M11/M12 A3029 RMK A01 T11061115  RH  095%=      5-min Rain = 0
KREE 091035Z 34004KT M11/M12 A3029 RMK A01 T11071115  RH  095%=      5-min Rain = 0
KREE 091040Z 34003KT M11/M11 A3028 RMK A01 T11061114  RH  095%=      5-min Rain = 0
KREE 091045Z 34003KT M11/M11 A3028 RMK A01 T11061114  RH  095%=      5-min Rain = 0
KREE 091050Z 34004KT M11/M11 A3028 RMK A01 T11051112  RH  096%=      5-min Rain = 0
KREE 091055Z 32003KT M10/M11 A3029 RMK A01 T11041111  RH  096%=      5-min Rain = 0
KREE 091100Z 31003KT M11/M11 A3029 RMK A01 T11051113  RH  095%=      5-min Rain = 0
KREE 091105Z 32003KT M11/M11 A3029 RMK A01 T11061114  RH  095%=      5-min Rain = 0
KREE 091110Z 32002KT M11/M11 A3029 RMK A01 T11061114  RH  095%=      5-min Rain = 0
KREE 091115Z 31003KT M11/M11 A3029 RMK A01 T11051113  RH  095%=      5-min Rain = 0
KREE 091120Z 31003KT M11/M12 A3029 RMK A01 T11071115  RH  095%=      5-min Rain = 0
KREE 091125Z 32004KT M11/M11 A3029 RMK A01 T11061114  RH  095%=      5-min Rain = 0
KREE 091130Z 32004KT M10/M11 A3029 RMK A01 T11041112  RH  096%=      5-min Rain = 0
KREE 091135Z 32004KT M11/M12 A3029 RMK A01 T11061115  RH  095%=      5-min Rain = 0
KREE 091140Z 33005KT M10/M11 A3029 RMK A01 T11021108  RH  097%=      5-min Rain = 0
KREE 091145Z 33005KT M10/M10 A3029 RMK A01 T10971103  RH  097%=      5-min Rain = 0
KREE 091150Z 32004KT M10/M10 A303 RMK A01 T10971104  RH  096%=      5-min Rain = 0
KREE 091155Z 32004KT M10/M11 A303 RMK A01 T10991106  RH  096%=      5-min Rain = 0
KREE 091200Z 32003KT M10/M11 A303 RMK A01 T11001108  RH  095%=      5-min Rain = 0
KREE 091205Z 30003KT M10/M11 A303 RMK A01 T11041114  RH  094%=      5-min Rain = 0
KREE 091210Z 29002KT M11/M12 A303 RMK A01 T11101120  RH  094%=      5-min Rain = 0
KREE 091215Z 29003KT M11/M12 A303 RMK A01 T11101119  RH  094%=      5-min Rain = 0
KREE 091220Z 29003KT M11/M12 A3031 RMK A01 T11091117  RH  095%=      5-min Rain = 0
KREE 091225Z 29004KT M11/M12 A3031 RMK A01 T11081116  RH  095%=      5-min Rain = 0
KREE 091230Z 30004KT M11/M12 A3031 RMK A01 T11071115  RH  095%=      5-min Rain = 0
KREE 091235Z 30004KT M11/M11 A3031 RMK A01 T11061114  RH  095%=      5-min Rain = 0
KREE 091240Z 31004KT M11/M12 A3031 RMK A01 T11081117  RH  094%=      5-min Rain = 0
KREE 091245Z 31004KT M11/M12 A3031 RMK A01 T11111120  RH  094%=      5-min Rain = 0
KREE 091250Z 31004KT M11/M12 A3031 RMK A01 T11131123  RH  094%=      5-min Rain = 0
KREE 091255Z 30004KT M11/M12 A3032 RMK A01 T11141123  RH  094%=      5-min Rain = 0
KREE 091300Z 30004KT M12/M12 A3032 RMK A01 T11151124  RH  094%=      5-min Rain = 0
KREE 091305Z 30004KT M12/M13 A3032 RMK A01 T11151125  RH  094%=      5-min Rain = 0
KREE 091310Z 30005KT M12/M12 A3032 RMK A01 T11151124  RH  094%=      5-min Rain = 0
KREE 091315Z 29006KT M11/M12 A3032 RMK A01 T11121121  RH  095%=      5-min Rain = 0
KREE 091320Z 30005KT M11/M12 A3032 RMK A01 T11111119  RH  095%=      5-min Rain = 0
KREE 091325Z 29005KT M11/M12 A3033 RMK A01 T11111119  RH  095%=      5-min Rain = 0
KREE 091330Z 30005KT M11/M12 A3033 RMK A01 T11111120  RH  095%=      5-min Rain = 0
KREE 091335Z 30004KT M11/M12 A3033 RMK A01 T11111120  RH  094%=      5-min Rain = 0
KREE 091340Z 31004KT M11/M12 A3034 RMK A01 T11131123  RH  094%=      5-min Rain = 0
KREE 091345Z 30004KT M12/M13 A3034 RMK A01 T11161126  RH  094%=      5-min Rain = 0
KREE 091350Z 30004KT M12/M13 A3034 RMK A01 T11161125  RH  094%=      5-min Rain = 0
KREE 091355Z 31004KT M12/M13 A3034 RMK A01 T11161125  RH  094%=      5-min Rain = 0
KREE 091400Z 31004KT M12/M13 A3035 RMK A01 T11161125  RH  094%=      5-min Rain = 0
KREE 091405Z 30004KT M11/M12 A3035 RMK A01 T11141123  RH  094%=      5-min Rain = 0
KREE 091410Z 30004KT M11/M12 A3035 RMK A01 T11131122  RH  095%=      5-min Rain = 0
KREE 091415Z 30004KT M11/M12 A3035 RMK A01 T11121120  RH  095%=      5-min Rain = 0
KREE 091420Z 30004KT M11/M12 A3035 RMK A01 T11101119  RH  095%=      5-min Rain = 0
KREE 091425Z 30004KT M11/M12 A3035 RMK A01 T11081116  RH  095%=      5-min Rain = 0
KREE 091430Z 30004KT M11/M11 A3035 RMK A01 T11061114  RH  095%=      5-min Rain = 0
KREE 091435Z 30004KT M10/M11 A3035 RMK A01 T11041112  RH  095%=      5-min Rain = 0
KREE 091440Z 30004KT M10/M11 A3035 RMK A01 T11031110  RH  095%=      5-min Rain = 0
KREE 091445Z 30004KT M10/M11 A3036 RMK A01 T11021110  RH  095%=      5-min Rain = 0
KREE 091450Z 31003KT M10/M11 A3036 RMK A01 T11001107  RH  096%=      5-min Rain = 0
KREE 091455Z 31003KT M10/M10 A3036 RMK A01 T10981104  RH  096%=      5-min Rain = 0
KREE 091500Z 30003KT M10/M10 A3036 RMK A01 T10951101  RH  097%=      5-min Rain = 0
KREE 091505Z 30003KT M09/M10 A3036 RMK A01 T10921098  RH  097%=      5-min Rain = 0
KREE 091510Z 30003KT M09/M10 A3036 RMK A01 T10901096  RH  097%=      5-min Rain = 0
KREE 091515Z 30003KT M09/M09 A3036 RMK A01 T10871092  RH  097%=      5-min Rain = 0
KREE 091520Z 30003KT M09/M09 A3037 RMK A01 T10851091  RH  097%=      5-min Rain = 0
KREE 091525Z 30003KT M08/M09 A3037 RMK A01 T10841089  RH  097%=      5-min Rain = 0
KREE 091530Z 32003KT M08/M09 A3037 RMK A01 T10811085  RH  098%=      5-min Rain = 0
KREE 091535Z 33003KT M08/M08 A3037 RMK A01 T10761080  RH  098%=      5-min Rain = 0
KREE 091540Z 32003KT M07/M08 A3038 RMK A01 T10721075  RH  098%=      5-min Rain = 0
KREE 091545Z 33002KT M07/M07 A3038 RMK A01 T10671070  RH  099%=      5-min Rain = 0
KREE 091550Z 31003KT M06/M07 A3038 RMK A01 T10621066  RH  099%=      5-min Rain = 0
KREE 091555Z 31002KT M06/M07 A3039 RMK A01 T10611065  RH  098%=      5-min Rain = 0
KREE 091600Z 29002KT M06/M07 A3039 RMK A01 T10621067  RH  098%=      5-min Rain = 0
KREE 091605Z 32003KT M06/M07 A3039 RMK A01 T10631067  RH  098%=      5-min Rain = 0
KREE 091610Z 32003KT M06/M06 A3039 RMK A01 T10611064  RH  099%=      5-min Rain = 0
KREE 091615Z 30003KT M06/M06 A3039 RMK A01 T10571059  RH  100%=      5-min Rain = 0
KREE 091620Z 29003KT M06/M06 A3039 RMK A01 T10561059  RH  099%=      5-min Rain = 0
KREE 091625Z 29003KT M05/M06 A3039 RMK A01 T10541055  RH  100%=      5-min Rain = 0
KREE 091630Z 29003KT M05/M05 A3039 RMK A01 T10521054  RH  100%=      5-min Rain = 0
KREE 091635Z 29003KT M05/M05 A3039 RMK A01 T10511053  RH  099%=      5-min Rain = 0
KREE 091640Z 29003KT M05/M05 A3039 RMK A01 T10511054  RH  099%=      5-min Rain = 0
KREE 091645Z 29003KT M05/M05 A3039 RMK A01 T10501053  RH  099%=      5-min Rain = 0
KREE 091650Z 29004KT M05/M05 A304 RMK A01 T10481051  RH  099%=      5-min Rain = 0
KREE 091655Z 29004KT M05/M05 A3039 RMK A01 T10461048  RH  099%=      5-min Rain = 0
KREE 091700Z 30005KT M04/M05 A3039 RMK A01 T10441047  RH  099%=      5-min Rain = 0
KREE 091705Z 31004KT M04/M05 A3039 RMK A01 T10441046  RH  099%=      5-min Rain = 0
KREE 091710Z 32005KT M04/M04 A3039 RMK A01 T10411042  RH  100%=      5-min Rain = 0
KREE 091715Z 32005KT M04/M04 A3039 RMK A01 T10371038  RH  100%=      5-min Rain = 0
KREE 091720Z 32004KT M03/M04 A3039 RMK A01 T10331035  RH  100%=      5-min Rain = 0
KREE 091725Z 32004KT M03/M03 A3038 RMK A01 T10311032  RH  100%=      5-min Rain = 0
KREE 091730Z 33004KT M03/M03 A3038 RMK A01 T10291030  RH  100%=      5-min Rain = 0
KREE 091735Z 33004KT M03/M03 A3039 RMK A01 T10261028  RH  100%=      5-min Rain = 0
KREE 091740Z 34004KT M02/M03 A3039 RMK A01 T10231025  RH  100%=      5-min Rain = 0
KREE 091745Z 33004KT M02/M03 A3038 RMK A01 T10221025  RH  099%=      5-min Rain = 0
KREE 091750Z 32004KT M02/M03 A3038 RMK A01 T10221025  RH  099%=      5-min Rain = 0
KREE 091755Z 32004KT M02/M02 A3038 RMK A01 T10211024  RH  099%=      5-min Rain = 0
KREE 091800Z 32004KT M02/M02 A3038 RMK A01 T10201023  RH  099%=      5-min Rain = 0
KREE 091805Z 32004KT M02/M02 A3038 RMK A01 T10181021  RH  099%=      5-min Rain = 0
KREE 091810Z 31004KT M02/M02 A3038 RMK A01 T10171021  RH  098%=      5-min Rain = 0
KREE 091815Z 31004KT M02/M02 A3038 RMK A01 T10161020  RH  098%=      5-min Rain = 0
KREE 091820Z 32003KT M02/M02 A3037 RMK A01 T10151019  RH  098%=      5-min Rain = 0
KREE 091825Z 31003KT M01/M02 A3037 RMK A01 T10121017  RH  098%=      5-min Rain = 0
KREE 091830Z 32004KT M01/M02 A3037 RMK A01 T10121017  RH  097%=      5-min Rain = 0
KREE 091835Z 32003KT M01/M02 A3036 RMK A01 T10111017  RH  097%=      5-min Rain = 0
KREE 091840Z 33002KT M01/M02 A3036 RMK A01 T10091015  RH  097%=      5-min Rain = 0
KREE 091845Z 35002KT M01/M01 A3036 RMK A01 T10061013  RH  096%=      5-min Rain = 0
KREE 091850Z 36003KT M01/M01 A3035 RMK A01 T10051012  RH  095%=      5-min Rain = 0
KREE 091855Z 36003KT M00/M01 A3035 RMK A01 T10041013  RH  095%=      5-min Rain = 0
KREE 091900Z 34003KT M00/M01 A3035 RMK A01 T10031012  RH  094%=      5-min Rain = 0
KREE 091905Z 34003KT M00/M01 A3035 RMK A01 T10021013  RH  094%=      5-min Rain = 0
KREE 091910Z 35002KT 00/01 A3035 RMK A01 T00-00-11  RH  094%=      5-min Rain = 0
KREE 091915Z 35001KT 00/M01 A3035 RMK A01 T00031010  RH  092%=      5-min Rain = 0
KREE 091920Z 35001KT 01/M01 A3035 RMK A01 T00051008  RH  092%=      5-min Rain = 0
KREE 091925Z 36001KT 01/M01 A3035 RMK A01 T00071010  RH  090%=      5-min Rain = 0
KREE 091930Z 32001KT 01/M01 A3035 RMK A01 T00091006  RH  090%=      5-min Rain = 0
KREE 091935Z 00000KT 02/00 A3035 RMK A01 T00200004  RH  090%=      5-min Rain = 0
KREE 091940Z 27001KT 03/01 A3035 RMK A01 T00310009  RH  086%=      5-min Rain = 0
KREE 091945Z 28002KT 02/M01 A3035 RMK A01 T00241007  RH  081%=      5-min Rain = 0
KREE 091950Z 27002KT 02/M01 A3034 RMK A01 T00171011  RH  083%=      5-min Rain = 0
KREE 091955Z 28001KT 02/M01 A3034 RMK A01 T00181011  RH  082%=      5-min Rain = 0
KREE 092000Z 30001KT 02/M01 A3034 RMK A01 T00211013  RH  079%=      5-min Rain = 0
KREE 092005Z 29002KT 02/M02 A3034 RMK A01 T00201017  RH  077%=      5-min Rain = 0
KREE 092010Z 28002KT 02/M02 A3034 RMK A01 T00201018  RH  077%=      5-min Rain = 0
KREE 092015Z 31002KT 02/M02 A3033 RMK A01 T00181021  RH  076%=      5-min Rain = 0
KREE 092020Z 29003KT 02/M02 A3033 RMK A01 T00171023  RH  076%=      5-min Rain = 0
KREE 092025Z 26002KT 02/M02 A3033 RMK A01 T00161024  RH  076%=      5-min Rain = 0
KREE 092030Z 27001KT 02/M02 A3033 RMK A01 T00191023  RH  075%=      5-min Rain = 0
KREE 092035Z 28001KT 02/M02 A3033 RMK A01 T00211021  RH  074%=      5-min Rain = 0
KREE 092040Z 29002KT 02/M02 A3033 RMK A01 T00231022  RH  073%=      5-min Rain = 0
KREE 092045Z 29003KT 02/M03 A3034 RMK A01 T00211026  RH  072%=      5-min Rain = 0
KREE 092050Z 29002KT 02/M03 A3033 RMK A01 T00181030  RH  071%=      5-min Rain = 0
KREE 092055Z 28002KT 02/M03 A3033 RMK A01 T00191031  RH  070%=      5-min Rain = 0
KREE 092100Z 27002KT 02/M03 A3033 RMK A01 T00211031  RH  069%=      5-min Rain = 0
KREE 092105Z 26002KT 02/M03 A3033 RMK A01 T00231034  RH  067%=      5-min Rain = 0
KREE 092110Z 28002KT 02/M04 A3033 RMK A01 T00221036  RH  066%=      5-min Rain = 0
KREE 092115Z 28001KT 02/M04 A3033 RMK A01 T00231037  RH  065%=      5-min Rain = 0
KREE 092120Z 28002KT 03/M04 A3033 RMK A01 T00261038  RH  064%=      5-min Rain = 0
KREE 092125Z 28002KT 03/M04 A3033 RMK A01 T00251040  RH  063%=      5-min Rain = 0
KREE 092130Z 29003KT 02/M04 A3033 RMK A01 T00221041  RH  063%=      5-min Rain = 0
KREE 092135Z 29003KT 02/M04 A3033 RMK A01 T00211040  RH  064%=      5-min Rain = 0
KREE 092140Z 30003KT 02/M04 A3033 RMK A01 T00211040  RH  065%=      5-min Rain = 0
KREE 092145Z 30003KT 02/M04 A3034 RMK A01 T00191042  RH  065%=      5-min Rain = 0
KREE 092150Z 31003KT 02/M04 A3034 RMK A01 T00191039  RH  066%=      5-min Rain = 0
KREE 092155Z 31003KT 02/M04 A3034 RMK A01 T00211038  RH  066%=      5-min Rain = 0
KREE 092200Z 31003KT 02/M04 A3034 RMK A01 T00221037  RH  066%=      5-min Rain = 0
KREE 092205Z 31003KT 02/M04 A3034 RMK A01 T00211036  RH  067%=      5-min Rain = 0
KREE 092210Z 31003KT 02/M04 A3034 RMK A01 T00211035  RH  067%=      5-min Rain = 0
KREE 092215Z 30003KT 02/M04 A3034 RMK A01 T00201036  RH  067%=      5-min Rain = 0
KREE 092220Z 30003KT 02/M04 A3034 RMK A01 T00211038  RH  065%=      5-min Rain = 0
KREE 092225Z 28002KT 02/M04 A3034 RMK A01 T00231039  RH  064%=      5-min Rain = 0
KREE 092230Z 26002KT 02/M04 A3034 RMK A01 T00211039  RH  065%=      5-min Rain = 0
KREE 092235Z 26002KT 02/M04 A3034 RMK A01 T00191039  RH  066%=      5-min Rain = 0
KREE 092240Z 26002KT 02/M04 A3034 RMK A01 T00191039  RH  066%=      5-min Rain = 0
KREE 092245Z 25001KT 03/M04 A3034 RMK A01 T00251036  RH  065%=      5-min Rain = 0
KREE 092250Z 22001KT 03/M04 A3034 RMK A01 T00311036  RH  062%=      5-min Rain = 0
KREE 092255Z 21001KT 03/M04 A3034 RMK A01 T00261037  RH  064%=      5-min Rain = 0
KREE 092300Z 21002KT 02/M04 A3034 RMK A01 T00161039  RH  067%=      5-min Rain = 0
KREE 092305Z 21002KT 01/M04 A3034 RMK A01 T00141038  RH  069%=      5-min Rain = 0
KREE 092310Z 19002KT 02/M04 A3034 RMK A01 T00161036  RH  069%=      5-min Rain = 0
KREE 092315Z 18002KT 02/M04 A3034 RMK A01 T00171037  RH  068%=      5-min Rain = 0
KREE 092320Z 19001KT 01/M04 A3034 RMK A01 T00141036  RH  070%=      5-min Rain = 0
KREE 092325Z 19001KT 01/M03 A3034 RMK A01 T00131034  RH  072%=      5-min Rain = 0
KREE 092330Z 20002KT 01/M03 A3034 RMK A01 T00081034  RH  074%=      5-min Rain = 0
KREE 092335Z 21003KT 00/M04 A3033 RMK A01 T00021035  RH  077%=      5-min Rain = 0
KREE 092340Z 22005KT M01/M04 A3033 RMK A01 T10071037  RH  081%=      5-min Rain = 0
KREE 092345Z 22005KT M01/M04 A3034 RMK A01 T10101037  RH  083%=      5-min Rain = 0
KREE 092350Z 21004KT M01/M04 A3034 RMK A01 T10111036  RH  084%=      5-min Rain = 0
KREE 092355Z 22004KT M01/M04 A3034 RMK A01 T10131035  RH  086%=      5-min Rain = 0
KREE 100000Z 22004KT M01/M03 A3034 RMK A01 T10131033  RH  087%=      5-min Rain = 0
KREE 100005Z 22004KT M01/M03 A3034 RMK A01 T10121032  RH  088%=      5-min Rain = 0
KREE 100010Z 22005KT M01/M03 A3034 RMK A01 T10121032  RH  088%=      5-min Rain = 0
KREE 100015Z 23005KT M02/M03 A3034 RMK A01 T10161033  RH  089%=      5-min Rain = 0
KREE 100020Z 22005KT M02/M03 A3034 RMK A01 T10181033  RH  090%=      5-min Rain = 0
KREE 100025Z 22006KT M02/M03 A3034 RMK A01 T10191033  RH  091%=      5-min Rain = 0
KREE 100030Z 22005KT M02/M03 A3034 RMK A01 T10201034  RH  091%=      5-min Rain = 0
KREE 100035Z 22005KT M02/M03 A3034 RMK A01 T10201034  RH  091%=      5-min Rain = 0
KREE 100040Z 22005KT M02/M04 A3034 RMK A01 T10201035  RH  091%=      5-min Rain = 0
KREE 100045Z 22005KT M02/M04 A3034 RMK A01 T10231037  RH  092%=      5-min Rain = 0
KREE 100050Z 23005KT M03/M04 A3034 RMK A01 T10261038  RH  093%=      5-min Rain = 0
KREE 100055Z 23005KT M03/M04 A3034 RMK A01 T10261037  RH  094%=      5-min Rain = 0
KREE 100100Z 23005KT M03/M04 A3034 RMK A01 T10251036  RH  094%=      5-min Rain = 0
KREE 100105Z 23005KT M02/M03 A3034 RMK A01 T10241034  RH  093%=      5-min Rain = 0
KREE 100110Z 23003KT M03/M04 A3034 RMK A01 T10261040  RH  091%=      5-min Rain = 0
KREE 100115Z 25003KT M03/M04 A3034 RMK A01 T10301042  RH  093%=      5-min Rain = 0
KREE 100120Z 27002KT M03/M04 A3035 RMK A01 T10291038  RH  095%=      5-min Rain = 0
KREE 100125Z 28002KT M03/M04 A3035 RMK A01 T10301040  RH  094%=      5-min Rain = 0
KREE 100130Z 28002KT M04/M05 A3035 RMK A01 T10361045  RH  095%=      5-min Rain = 0
KREE 100135Z 27002KT M04/M05 A3035 RMK A01 T10401047  RH  096%=      5-min Rain = 0
KREE 100140Z 26003KT M04/M04 A3035 RMK A01 T10391044  RH  098%=      5-min Rain = 0
KREE 100145Z 25003KT M04/M05 A3036 RMK A01 T10411046  RH  097%=      5-min Rain = 0
KREE 100150Z 25004KT M05/M05 A3036 RMK A01 T10461051  RH  097%=      5-min Rain = 0
KREE 100155Z 25004KT M04/M05 A3036 RMK A01 T10441047  RH  099%=      5-min Rain = 0
KREE 100200Z 25004KT M05/M05 A3036 RMK A01 T10461050  RH  098%=      5-min Rain = 0
KREE 100205Z 26004KT M05/M05 A3036 RMK A01 T10471049  RH  099%=      5-min Rain = 0
KREE 100210Z 27004KT M04/M05 A3036 RMK A01 T10441046  RH  100%=      5-min Rain = 0
KREE 100215Z 27004KT M04/M05 A3036 RMK A01 T10431046  RH  099%=      5-min Rain = 0
KREE 100220Z 27003KT M05/M05 A3037 RMK A01 T10471051  RH  098%=      5-min Rain = 0
KREE 100225Z 28003KT M05/M05 A3037 RMK A01 T10491053  RH  098%=      5-min Rain = 0
KREE 100230Z 28004KT M05/M06 A3037 RMK A01 T10521055  RH  099%=      5-min Rain = 0
KREE 100235Z 27004KT M05/M06 A3037 RMK A01 T10541057  RH  099%=      5-min Rain = 0
KREE 100240Z 27004KT M06/M06 A3037 RMK A01 T10581060  RH  099%=      5-min Rain = 0
KREE 100245Z 27005KT M06/M06 A3037 RMK A01 T10591061  RH  100%=      5-min Rain = 0
KREE 100250Z 27005KT M06/M06 A3037 RMK A01 T10581060  RH  100%=      5-min Rain = 0
KREE 100255Z 28005KT M06/M06 A3037 RMK A01 T10601061  RH  100%=      5-min Rain = 0
KREE 100300Z 29005KT M06/M06 A3037 RMK A01 T10591061  RH  100%=      5-min Rain = 0
KREE 100305Z 29005KT M06/M06 A3037 RMK A01 T10611063  RH  100%=      5-min Rain = 0
KREE 100310Z 29006KT M06/M07 A3037 RMK A01 T10641066  RH  100%=      5-min Rain = 0
KREE 100315Z 29007KT M07/M07 A3037 RMK A01 T10671069  RH  100%=      5-min Rain = 0
KREE 100320Z 28008KT M07/M07 A3037 RMK A01 T10661068  RH  100%=      5-min Rain = 0
KREE 100325Z 28009KT M07/M07 A3037 RMK A01 T10651066  RH  100%=      5-min Rain = 0
KREE 100330Z 28009KT M06/M07 A3038 RMK A01 T10641065  RH  100%=      5-min Rain = 0
KREE 100335Z 28008KT M06/M07 A3037 RMK A01 T10641065  RH  100%=      5-min Rain = 0
KREE 100340Z 28008KT M06/M06 A3037 RMK A01 T10631064  RH  100%=      5-min Rain = 0
KREE 100345Z 27006KT M06/M07 A3037 RMK A01 T10641066  RH  100%=      5-min Rain = 0
KREE 100350Z 27007KT M06/M07 A3037 RMK A01 T10631065  RH  100%=      5-min Rain = 0
KREE 100355Z 27006KT M06/M06 A3037 RMK A01 T10611062  RH  100%=      5-min Rain = 0
KREE 100400Z 28007KT M06/M06 A3038 RMK A01 T10621064  RH  100%=      5-min Rain = 0
KREE 100405Z 28006KT M07/M07 A3038 RMK A01 T10661069  RH  099%=      5-min Rain = 0
KREE 100410Z 28008KT M07/M08 A3038 RMK A01 T10711075  RH  098%=      5-min Rain = 0
KREE 100415Z 29009KT M07/M07 A3038 RMK A01 T10711074  RH  099%=      5-min Rain = 0
KREE 100420Z 29009KT M07/M07 A3038 RMK A01 T10711073  RH  099%=      5-min Rain = 0
KREE 100425Z 29008KT M07/M07 A3038 RMK A01 T10711073  RH  100%=      5-min Rain = 0
KREE 100430Z 29008KT M07/M07 A3038 RMK A01 T10711073  RH  100%=      5-min Rain = 0
KREE 100435Z 30008KT M07/M08 A3038 RMK A01 T10731075  RH  100%=      5-min Rain = 0
KREE 100440Z 30008KT M07/M07 A3038 RMK A01 T10731074  RH  100%=      5-min Rain = 0
KREE 100445Z 29008KT M07/M07 A3038 RMK A01 T10711073  RH  100%=      5-min Rain = 0
KREE 100450Z 29008KT M07/M07 A3038 RMK A01 T10711074  RH  099%=      5-min Rain = 0
KREE 100455Z 29009KT M07/M07 A3038 RMK A01 T10701072  RH  100%=      5-min Rain = 0
KREE 100500Z 28009KT M06/M07 A3038 RMK A01 T10641066  RH  100%=      5-min Rain = 0
KREE 100505Z 28008KT M06/M06 A3038 RMK A01 T10621064  RH  100%=      5-min Rain = 0
KREE 100510Z 29008KT M06/M07 A3038 RMK A01 T10631066  RH  099%=      5-min Rain = 0
KREE 100515Z 29009KT M06/M07 A3038 RMK A01 T10641066  RH  099%=      5-min Rain = 0
KREE 100520Z 29009KT M06/M07 A3038 RMK A01 T10641068  RH  099%=      5-min Rain = 0
KREE 100525Z 29009KT M07/M07 A3038 RMK A01 T10661070  RH  098%=      5-min Rain = 0
KREE 100530Z 29009KT M07/M07 A3038 RMK A01 T10701074  RH  098%=      5-min Rain = 0
KREE 100535Z 29009KT M07/M07 A3038 RMK A01 T10701074  RH  098%=      5-min Rain = 0
KREE 100540Z 30008KT M07/M07 A3037 RMK A01 T10711074  RH  098%=      5-min Rain = 0
KREE 100545Z 29008KT M07/M08 A3037 RMK A01 T10711075  RH  098%=      5-min Rain = 0
KREE 100550Z 29008KT M07/M08 A3037 RMK A01 T10721077  RH  098%=      5-min Rain = 0
KREE 100555Z 29008KT M07/M08 A3037 RMK A01 T10731077  RH  098%=      5-min Rain = 0

Page generated in 0.0489 seconds.